createdAt,value
2017-11-11T00:00:12.240Z,5.7
2017-11-11T00:00:32.424Z,5.8
2017-11-11T00:00:52.613Z,5.7
2017-11-11T00:01:12.774Z,5.7
2017-11-11T00:01:32.937Z,5.7
2017-11-11T00:01:53.126Z,5.7
2017-11-11T00:02:13.306Z,5.8
2017-11-11T00:02:33.493Z,5.7
2017-11-11T00:02:53.669Z,5.8
2017-11-11T00:03:13.841Z,5.7
2017-11-11T00:03:34.007Z,5.8
2017-11-11T00:03:54.170Z,5.8
2017-11-11T00:04:14.363Z,5.7
2017-11-11T00:04:34.533Z,5.7
2017-11-11T00:04:54.718Z,5.8
2017-11-11T00:05:14.892Z,5.7
2017-11-11T00:05:35.074Z,5.8
2017-11-11T00:05:55.321Z,5.7
2017-11-11T00:06:15.498Z,5.8
2017-11-11T00:06:35.691Z,5.8
2017-11-11T00:06:55.878Z,5.7
2017-11-11T00:07:16.059Z,5.7
2017-11-11T00:07:36.234Z,5.7
2017-11-11T00:07:56.536Z,5.7
2017-11-11T00:08:16.704Z,5.7
2017-11-11T00:08:36.865Z,5.8
2017-11-11T00:08:57.038Z,5.8
2017-11-11T00:09:17.236Z,5.7
2017-11-11T00:09:37.411Z,5.7
2017-11-11T00:09:57.564Z,5.8
2017-11-11T00:10:17.753Z,5.7
2017-11-11T00:10:37.921Z,5.7
2017-11-11T00:10:58.096Z,5.7
2017-11-11T00:11:18.309Z,5.7
2017-11-11T00:11:38.492Z,5.8
2017-11-11T00:11:58.677Z,5.8
2017-11-11T00:12:18.886Z,5.8
2017-11-11T00:12:39.127Z,5.7
2017-11-11T00:12:59.310Z,5.8
2017-11-11T00:13:19.471Z,5.9
2017-11-11T00:13:39.650Z,5.8
2017-11-11T00:13:59.835Z,5.8
2017-11-11T00:14:20.017Z,5.8
2017-11-11T00:14:40.201Z,5.8
2017-11-11T00:15:00.386Z,5.8
2017-11-11T00:15:20.565Z,5.8
2017-11-11T00:15:40.808Z,5.7
2017-11-11T00:16:00.996Z,5.7
2017-11-11T00:16:21.228Z,5.7
2017-11-11T00:16:41.407Z,5.7
2017-11-11T00:17:01.571Z,5.7
2017-11-11T00:17:21.774Z,5.7
2017-11-11T00:17:42.021Z,5.7
2017-11-11T00:18:02.260Z,5.7
2017-11-11T00:18:22.430Z,5.7
2017-11-11T00:18:42.608Z,5.7
2017-11-11T00:19:02.801Z,5.7
2017-11-11T00:19:23.024Z,5.7
2017-11-11T00:19:43.193Z,5.7
2017-11-11T00:20:03.378Z,5.6
2017-11-11T00:20:23.558Z,5.6
2017-11-11T00:20:43.723Z,5.6
2017-11-11T00:21:03.886Z,5.7
2017-11-11T00:21:24.059Z,5.6
2017-11-11T00:21:44.286Z,5.5
2017-11-11T00:22:04.514Z,5.5
2017-11-11T00:22:24.672Z,5.5
2017-11-11T00:22:44.847Z,5.5
2017-11-11T00:23:05.022Z,5.5
2017-11-11T00:23:25.190Z,5.6
2017-11-11T00:23:45.360Z,5.6
2017-11-11T00:24:05.538Z,5.5
2017-11-11T00:24:25.775Z,5.6
2017-11-11T00:24:45.954Z,5.6
2017-11-11T00:25:06.152Z,5.5
2017-11-11T00:25:26.326Z,5.5
2017-11-11T00:25:46.602Z,5.6
2017-11-11T00:26:06.772Z,5.5
2017-11-11T00:26:26.943Z,5.4
2017-11-11T00:26:47.188Z,5.5
2017-11-11T00:27:07.372Z,5.5
2017-11-11T00:27:27.547Z,5.5
2017-11-11T00:27:47.728Z,5.4
2017-11-11T00:28:08.030Z,5.4
2017-11-11T00:28:28.295Z,5.5
2017-11-11T00:28:48.528Z,5.4
2017-11-11T00:29:08.707Z,5.4
2017-11-11T00:29:29.027Z,5.4
2017-11-11T00:29:49.199Z,5.4
2017-11-11T00:30:09.374Z,5.4
2017-11-11T00:30:29.541Z,5.4
2017-11-11T00:30:49.719Z,5.4
2017-11-11T00:31:09.956Z,5.4
2017-11-11T00:31:30.188Z,5.4
2017-11-11T00:31:50.364Z,5.3
2017-11-11T00:32:10.543Z,5.4
2017-11-11T00:32:30.715Z,5.3
2017-11-11T00:32:50.885Z,5.3
2017-11-11T00:33:11.066Z,5.4
2017-11-11T00:33:31.241Z,5.3
2017-11-11T00:33:51.417Z,5.4
2017-11-11T00:34:11.585Z,5.4
2017-11-11T00:34:31.751Z,5.4
2017-11-11T00:34:51.938Z,5.4
2017-11-11T00:35:12.105Z,5.2
2017-11-11T00:35:32.285Z,5.3
2017-11-11T00:35:52.477Z,5.3
2017-11-11T00:36:12.655Z,5.3
2017-11-11T00:36:32.837Z,5.3
2017-11-11T00:36:53.012Z,5.3
2017-11-11T00:37:13.189Z,5.3
2017-11-11T00:37:33.436Z,5.3
2017-11-11T00:37:53.612Z,5.2
2017-11-11T00:38:13.780Z,5.3
2017-11-11T00:38:33.951Z,5.3
2017-11-11T00:38:54.120Z,5.2
2017-11-11T00:39:14.292Z,5.3
2017-11-11T00:39:34.482Z,5.3
2017-11-11T00:39:54.732Z,5.2
2017-11-11T00:40:14.904Z,5.3
2017-11-11T00:40:35.137Z,5.2
2017-11-11T00:40:55.296Z,5.2
2017-11-11T00:41:15.603Z,5.3
2017-11-11T00:41:35.781Z,5.2
2017-11-11T00:41:55.954Z,5.2
2017-11-11T00:42:16.126Z,5.3
2017-11-11T00:42:36.311Z,5.2
2017-11-11T00:42:56.476Z,5.2
2017-11-11T00:43:16.662Z,5.2
2017-11-11T00:43:36.858Z,5.2
2017-11-11T00:43:57.028Z,5.3
2017-11-11T00:44:17.278Z,5.3
2017-11-11T00:44:37.461Z,5.2
2017-11-11T00:44:57.756Z,5.2
2017-11-11T00:45:17.950Z,5.2
2017-11-11T00:45:38.127Z,5.2
2017-11-11T00:45:58.312Z,5.2
2017-11-11T00:46:18.598Z,5.2
2017-11-11T00:46:38.794Z,5.3
2017-11-11T00:46:58.971Z,5.2
2017-11-11T00:47:19.147Z,5.2
2017-11-11T00:47:39.324Z,5.2
2017-11-11T00:47:59.512Z,5.3
2017-11-11T00:48:19.700Z,5.2
2017-11-11T00:48:39.886Z,5.2
2017-11-11T00:49:00.055Z,5.2
2017-11-11T00:49:20.236Z,5.2
2017-11-11T00:49:40.418Z,5.2
2017-11-11T00:50:00.584Z,5.3
2017-11-11T00:50:20.753Z,5.3
2017-11-11T00:50:40.925Z,5.3
2017-11-11T00:51:01.170Z,5.2
2017-11-11T00:51:21.396Z,5.2
2017-11-11T00:51:41.573Z,5.2
2017-11-11T00:52:01.741Z,5.2
2017-11-11T00:52:21.908Z,5.2
2017-11-11T00:52:42.087Z,5.2
2017-11-11T00:53:02.261Z,5.3
2017-11-11T00:53:22.430Z,5.3
2017-11-11T00:53:42.607Z,5.2
2017-11-11T00:54:02.785Z,5.3
2017-11-11T00:54:22.949Z,5.2
2017-11-11T00:54:43.142Z,5.2
2017-11-11T00:55:03.332Z,5.2
2017-11-11T00:55:23.497Z,5.2
2017-11-11T00:55:43.677Z,5.2
2017-11-11T00:56:03.858Z,5.2
2017-11-11T00:56:24.026Z,5.2
2017-11-11T00:56:44.204Z,5.2
2017-11-11T00:57:04.380Z,5.1
2017-11-11T00:57:24.562Z,5.1
2017-11-11T00:57:44.739Z,5.1
2017-11-11T00:58:04.926Z,5.1
2017-11-11T00:58:25.110Z,5.1
2017-11-11T00:58:45.296Z,5.1
2017-11-11T00:59:05.467Z,5.1
2017-11-11T00:59:25.704Z,5
2017-11-11T00:59:45.876Z,5.1
2017-11-11T01:00:06.050Z,5.2
2017-11-11T01:00:26.274Z,5.1
2017-11-11T01:00:46.455Z,5.1
2017-11-11T01:01:06.657Z,5
2017-11-11T01:01:26.827Z,5.1
2017-11-11T01:01:47.001Z,5.1
2017-11-11T01:02:07.189Z,5.2
2017-11-11T01:02:27.344Z,5.2
2017-11-11T01:02:47.514Z,5.1
2017-11-11T01:03:07.689Z,5.1
2017-11-11T01:03:27.864Z,5.2
2017-11-11T01:03:48.040Z,5.1
2017-11-11T01:04:08.218Z,5.2
2017-11-11T01:04:28.384Z,5.1
2017-11-11T01:04:48.556Z,5.1
2017-11-11T01:05:08.732Z,5.1
2017-11-11T01:05:28.900Z,5.1
2017-11-11T01:05:49.075Z,5.1
2017-11-11T01:06:09.309Z,4.9
2017-11-11T01:06:29.554Z,5
2017-11-11T01:06:49.728Z,5.1
2017-11-11T01:07:09.890Z,5
2017-11-11T01:07:30.069Z,5.1
2017-11-11T01:07:50.247Z,5.2
2017-11-11T01:08:10.419Z,5
2017-11-11T01:08:30.597Z,5.1
2017-11-11T01:08:50.787Z,5.1
2017-11-11T01:09:10.971Z,5.1
2017-11-11T01:09:31.181Z,5
2017-11-11T01:09:51.349Z,5.1
2017-11-11T01:10:11.529Z,5
2017-11-11T01:10:31.765Z,5
2017-11-11T01:10:51.967Z,5
2017-11-11T01:11:12.134Z,5.1
2017-11-11T01:11:32.305Z,5
2017-11-11T01:11:52.470Z,5
2017-11-11T01:12:12.702Z,4.9
2017-11-11T01:12:32.880Z,5
2017-11-11T01:12:53.125Z,5.1
2017-11-11T01:13:13.325Z,5
2017-11-11T01:13:33.562Z,5
2017-11-11T01:13:53.729Z,5
2017-11-11T01:14:13.897Z,5
2017-11-11T01:14:34.081Z,5
2017-11-11T01:14:54.255Z,5
2017-11-11T01:15:14.435Z,5
2017-11-11T01:15:34.609Z,5
2017-11-11T01:15:54.797Z,4.9
2017-11-11T01:16:14.966Z,5
2017-11-11T01:16:35.133Z,5
2017-11-11T01:16:55.321Z,5
2017-11-11T01:17:15.494Z,5
2017-11-11T01:17:35.654Z,5
2017-11-11T01:17:55.838Z,5
2017-11-11T01:18:16.014Z,5.1
2017-11-11T01:18:36.190Z,5
2017-11-11T01:18:56.365Z,5.1
2017-11-11T01:19:16.535Z,5
2017-11-11T01:19:36.699Z,5
2017-11-11T01:19:56.935Z,5
2017-11-11T01:20:17.111Z,4.9
2017-11-11T01:20:37.286Z,5
2017-11-11T01:20:57.462Z,5
2017-11-11T01:21:17.641Z,5
2017-11-11T01:21:37.811Z,4.9
2017-11-11T01:21:57.992Z,5
2017-11-11T01:22:18.150Z,5
2017-11-11T01:22:38.316Z,5.1
2017-11-11T01:22:58.486Z,5
2017-11-11T01:23:18.646Z,5
2017-11-11T01:23:38.817Z,5.1
2017-11-11T01:23:58.991Z,5
2017-11-11T01:24:19.159Z,5
2017-11-11T01:24:39.330Z,5.1
2017-11-11T01:24:59.518Z,5
2017-11-11T01:25:19.689Z,5
2017-11-11T01:25:39.862Z,5
2017-11-11T01:26:00.032Z,5
2017-11-11T01:26:20.210Z,5.1
2017-11-11T01:26:40.386Z,5
2017-11-11T01:27:00.566Z,5
2017-11-11T01:27:20.802Z,5
2017-11-11T01:27:40.970Z,5
2017-11-11T01:28:01.131Z,5
2017-11-11T01:28:21.379Z,5
2017-11-11T01:28:41.630Z,5
2017-11-11T01:29:01.797Z,5.1
2017-11-11T01:29:21.984Z,4.9
2017-11-11T01:29:42.163Z,5
2017-11-11T01:30:02.353Z,4.9
2017-11-11T01:30:22.585Z,5
2017-11-11T01:30:42.778Z,5
2017-11-11T01:31:02.955Z,5
2017-11-11T01:31:23.128Z,5
2017-11-11T01:31:43.301Z,5
2017-11-11T01:32:03.502Z,5
2017-11-11T01:32:23.678Z,5
2017-11-11T01:32:43.888Z,5
2017-11-11T01:33:04.063Z,4.9
2017-11-11T01:33:24.246Z,5
2017-11-11T01:33:44.416Z,5
2017-11-11T01:34:04.578Z,5.1
2017-11-11T01:34:24.829Z,5
2017-11-11T01:34:44.993Z,5.1
2017-11-11T01:35:05.168Z,5
2017-11-11T01:35:25.344Z,5
2017-11-11T01:35:45.506Z,5
2017-11-11T01:36:05.690Z,5
2017-11-11T01:36:25.862Z,5
2017-11-11T01:36:46.034Z,5
2017-11-11T01:37:06.259Z,5
2017-11-11T01:37:26.448Z,5
2017-11-11T01:37:46.625Z,5
2017-11-11T01:38:06.803Z,4.9
2017-11-11T01:38:26.976Z,5
2017-11-11T01:38:47.151Z,5
2017-11-11T01:39:07.314Z,5.1
2017-11-11T01:39:27.488Z,5
2017-11-11T01:39:47.673Z,5
2017-11-11T01:40:07.841Z,5
2017-11-11T01:40:28.033Z,5.1
2017-11-11T01:40:48.214Z,5
2017-11-11T01:41:08.394Z,4.9
2017-11-11T01:41:28.578Z,4.9
2017-11-11T01:41:48.749Z,4.9
2017-11-11T01:42:08.940Z,5
2017-11-11T01:42:29.125Z,5
2017-11-11T01:42:49.359Z,4.9
2017-11-11T01:43:09.544Z,5
2017-11-11T01:43:29.814Z,4.9
2017-11-11T01:43:49.987Z,5
2017-11-11T01:44:10.163Z,5
2017-11-11T01:44:30.326Z,5
2017-11-11T01:44:50.505Z,4.9
2017-11-11T01:45:10.675Z,4.9
2017-11-11T01:45:30.846Z,5.1
2017-11-11T01:45:51.035Z,5
2017-11-11T01:46:11.308Z,5
2017-11-11T01:46:31.495Z,5
2017-11-11T01:46:51.663Z,5
2017-11-11T01:47:11.917Z,5
2017-11-11T01:47:32.093Z,5
2017-11-11T01:47:52.257Z,4.9
2017-11-11T01:48:12.424Z,5.1
2017-11-11T01:48:32.597Z,4.9
2017-11-11T01:48:52.773Z,5.1
2017-11-11T01:49:12.944Z,5
2017-11-11T01:49:33.123Z,4.9
2017-11-11T01:49:53.375Z,5
2017-11-11T01:50:13.617Z,5
2017-11-11T01:50:33.798Z,4.9
2017-11-11T01:50:53.962Z,5
2017-11-11T01:51:14.193Z,5
2017-11-11T01:51:34.374Z,5
2017-11-11T01:51:54.554Z,5.1
2017-11-11T01:52:14.733Z,5
2017-11-11T01:52:34.901Z,4.9
2017-11-11T01:52:55.062Z,5
2017-11-11T01:53:15.255Z,5.1
2017-11-11T01:53:35.393Z,5.1
2017-11-11T01:53:55.570Z,5
2017-11-11T01:54:15.748Z,5
2017-11-11T01:54:35.925Z,5
2017-11-11T01:54:56.098Z,5.1
2017-11-11T01:55:16.272Z,5
2017-11-11T01:55:36.456Z,5
2017-11-11T01:55:56.628Z,5
2017-11-11T01:56:16.813Z,5
2017-11-11T01:56:36.999Z,5.1
2017-11-11T01:56:57.319Z,5.1
2017-11-11T01:57:17.508Z,5.1
2017-11-11T01:57:37.699Z,5.1
2017-11-11T01:57:57.862Z,5.1
2017-11-11T01:58:18.047Z,5
2017-11-11T01:58:38.304Z,5.1
2017-11-11T01:58:58.486Z,5.1
2017-11-11T01:59:18.676Z,5.1
2017-11-11T01:59:38.836Z,5.1
2017-11-11T01:59:59.015Z,5.1
2017-11-11T02:00:19.306Z,5.1
2017-11-11T02:00:39.482Z,5.1
2017-11-11T02:00:59.641Z,5.1
2017-11-11T02:01:19.827Z,5.1
2017-11-11T02:01:40.003Z,5.1
2017-11-11T02:02:00.173Z,5.2
2017-11-11T02:02:20.359Z,5.1
2017-11-11T02:02:40.538Z,5.1
2017-11-11T02:03:00.710Z,5.2
2017-11-11T02:03:20.877Z,5.2
2017-11-11T02:03:41.055Z,5.2
2017-11-11T02:04:01.232Z,5.2
2017-11-11T02:04:21.413Z,5.2
2017-11-11T02:04:41.602Z,5.1
2017-11-11T02:05:01.834Z,5.2
2017-11-11T02:05:22.011Z,5.2
2017-11-11T02:05:42.178Z,5.2
2017-11-11T02:06:02.351Z,5.2
2017-11-11T02:06:22.512Z,5.2
2017-11-11T02:06:42.693Z,5.2
2017-11-11T02:07:02.874Z,5.2
2017-11-11T02:07:23.040Z,5.2
2017-11-11T02:07:43.273Z,5.2
2017-11-11T02:08:03.452Z,5.2
2017-11-11T02:08:23.626Z,5.2
2017-11-11T02:08:43.792Z,5.2
2017-11-11T02:09:03.991Z,5.2
2017-11-11T02:09:24.185Z,5.2
2017-11-11T02:09:44.494Z,5.2
2017-11-11T02:10:04.769Z,5.2
2017-11-11T02:10:25.006Z,5.2
2017-11-11T02:10:45.171Z,5.2
2017-11-11T02:11:05.335Z,5.2
2017-11-11T02:11:25.499Z,5.1
2017-11-11T02:11:45.678Z,5.1
2017-11-11T02:12:05.875Z,5.2
2017-11-11T02:12:26.103Z,5.1
2017-11-11T02:12:46.284Z,5.2
2017-11-11T02:13:06.450Z,5.2
2017-11-11T02:13:26.631Z,5.2
2017-11-11T02:13:46.863Z,5.2
2017-11-11T02:14:07.113Z,5.2
2017-11-11T02:14:27.399Z,5.2
2017-11-11T02:14:47.573Z,5.3
2017-11-11T02:15:07.865Z,5.2
2017-11-11T02:15:28.037Z,5.3
2017-11-11T02:15:48.245Z,5.3
2017-11-11T02:16:08.400Z,5.2
2017-11-11T02:16:28.599Z,5.3
2017-11-11T02:16:49.498Z,5.2
2017-11-11T02:17:09.733Z,5.3
2017-11-11T02:17:29.917Z,5.2
2017-11-11T02:17:50.090Z,5.2
2017-11-11T02:18:10.269Z,5.2
2017-11-11T02:18:30.445Z,5.2
2017-11-11T02:18:50.613Z,5.2
2017-11-11T02:19:10.786Z,5.1
2017-11-11T02:19:31.012Z,5.1
2017-11-11T02:19:51.205Z,5.2
2017-11-11T02:20:11.377Z,5.2
2017-11-11T02:20:31.550Z,5.1
2017-11-11T02:20:51.787Z,5.1
2017-11-11T02:21:11.966Z,5.2
2017-11-11T02:21:33.007Z,5.2
2017-11-11T02:21:53.236Z,5.2
2017-11-11T02:22:13.472Z,5.2
2017-11-11T02:22:33.632Z,5.2
2017-11-11T02:22:53.859Z,5.2
2017-11-11T02:23:14.032Z,5.2
2017-11-11T02:23:34.209Z,5.2
2017-11-11T02:23:54.380Z,5.2
2017-11-11T02:24:14.573Z,5.2
2017-11-11T02:24:34.847Z,5.2
2017-11-11T02:24:55.008Z,5.3
2017-11-11T02:25:15.182Z,5.3
2017-11-11T02:25:35.434Z,5.2
2017-11-11T02:25:55.666Z,5.2
2017-11-11T02:26:15.837Z,5.2
2017-11-11T02:26:36.009Z,5.3
2017-11-11T02:26:56.206Z,5.3
2017-11-11T02:27:16.391Z,5.2
2017-11-11T02:27:36.562Z,5.3
2017-11-11T02:27:56.808Z,5.3
2017-11-11T02:28:17.070Z,5.3
2017-11-11T02:28:37.241Z,5.3
2017-11-11T02:28:57.417Z,5.3
2017-11-11T02:29:17.594Z,5.3
2017-11-11T02:29:37.762Z,5.3
2017-11-11T02:29:57.930Z,5.4
2017-11-11T02:30:18.111Z,5.3
2017-11-11T02:30:38.304Z,5.3
2017-11-11T02:30:58.472Z,5.4
2017-11-11T02:31:18.658Z,5.3
2017-11-11T02:31:38.841Z,5.4
2017-11-11T02:31:59.016Z,5.4
2017-11-11T02:32:19.250Z,5.3
2017-11-11T02:32:39.412Z,5.3
2017-11-11T02:32:59.645Z,5.3
2017-11-11T02:33:19.814Z,5.3
2017-11-11T02:33:40.070Z,5.3
2017-11-11T02:34:00.240Z,5.3
2017-11-11T02:34:20.409Z,5.3
2017-11-11T02:34:40.586Z,5.3
2017-11-11T02:35:00.770Z,5.3
2017-11-11T02:35:20.959Z,5.3
2017-11-11T02:35:41.235Z,5.3
2017-11-11T02:36:01.410Z,5.3
2017-11-11T02:36:21.640Z,5.3
2017-11-11T02:36:41.886Z,5.3
2017-11-11T02:37:02.082Z,5.3
2017-11-11T02:37:22.247Z,5.3
2017-11-11T02:37:42.479Z,5.3
2017-11-11T02:38:02.742Z,5.2
2017-11-11T02:38:22.909Z,5.2
2017-11-11T02:38:43.196Z,5.2
2017-11-11T02:39:03.409Z,5.2
2017-11-11T02:39:23.586Z,5.3
2017-11-11T02:39:43.760Z,5.2
2017-11-11T02:40:03.934Z,5.2
2017-11-11T02:40:24.109Z,5.2
2017-11-11T02:40:44.274Z,5.2
2017-11-11T02:41:04.473Z,5.2
2017-11-11T02:41:24.714Z,5.2
2017-11-11T02:41:44.972Z,5.3
2017-11-11T02:42:05.156Z,5.2
2017-11-11T02:42:25.324Z,5.2
2017-11-11T02:42:45.562Z,5.2
2017-11-11T02:43:05.724Z,5.2
2017-11-11T02:43:25.905Z,5.2
2017-11-11T02:43:46.081Z,5.3
2017-11-11T02:44:06.251Z,5.2
2017-11-11T02:44:26.434Z,5.2
2017-11-11T02:44:46.600Z,5.3
2017-11-11T02:45:06.782Z,5.3
2017-11-11T02:45:26.945Z,5.3
2017-11-11T02:45:47.180Z,5.2
2017-11-11T02:46:07.367Z,5.3
2017-11-11T02:46:27.545Z,5.3
2017-11-11T02:46:47.725Z,5.3
2017-11-11T02:47:07.905Z,5.4
2017-11-11T02:47:28.083Z,5.3
2017-11-11T02:47:48.265Z,5.3
2017-11-11T02:48:08.434Z,5.3
2017-11-11T02:48:28.629Z,5.3
2017-11-11T02:48:48.773Z,5.3
2017-11-11T02:49:08.954Z,5.2
2017-11-11T02:49:29.133Z,5.3
2017-11-11T02:49:49.358Z,5.3
2017-11-11T02:50:09.528Z,5.3
2017-11-11T02:50:29.699Z,5.3
2017-11-11T02:50:49.871Z,5.3
2017-11-11T02:51:10.043Z,5.3
2017-11-11T02:51:30.213Z,5.3
2017-11-11T02:51:50.383Z,5.2
2017-11-11T02:52:10.577Z,5.3
2017-11-11T02:52:30.823Z,5.4
2017-11-11T02:52:51.130Z,5.4
2017-11-11T02:53:11.305Z,5.2
2017-11-11T02:53:31.478Z,5.3
2017-11-11T02:53:51.647Z,5.3
2017-11-11T02:54:11.815Z,5.3
2017-11-11T02:54:31.998Z,5.3
2017-11-11T02:54:52.288Z,5.3
2017-11-11T02:55:12.467Z,5.3
2017-11-11T02:55:32.705Z,5.2
2017-11-11T02:55:52.891Z,5.3
2017-11-11T02:56:13.081Z,5.3
2017-11-11T02:56:33.265Z,5.3
2017-11-11T02:56:53.499Z,5.3
2017-11-11T02:57:13.732Z,5.2
2017-11-11T02:57:33.899Z,5.3
2017-11-11T02:57:54.067Z,5.2
2017-11-11T02:58:14.244Z,5.2
2017-11-11T02:58:34.407Z,5.2
2017-11-11T02:58:54.602Z,5.3
2017-11-11T02:59:14.833Z,5.3
2017-11-11T02:59:35.263Z,5.3
2017-11-11T02:59:55.453Z,5.3
2017-11-11T03:00:15.616Z,5.2
2017-11-11T03:00:35.792Z,5.3
2017-11-11T03:00:55.981Z,5.3
2017-11-11T03:01:16.165Z,5.3
2017-11-11T03:01:36.353Z,5.4
2017-11-11T03:01:57.379Z,5.4
2017-11-11T03:02:17.557Z,5.3
2017-11-11T03:02:37.726Z,5.3
2017-11-11T03:02:57.904Z,5.3
2017-11-11T03:03:18.086Z,5.3
2017-11-11T03:03:38.259Z,5.4
2017-11-11T03:03:58.436Z,5.3
2017-11-11T03:04:18.608Z,5.3
2017-11-11T03:04:38.776Z,5.4
2017-11-11T03:04:58.975Z,5.4
2017-11-11T03:05:19.199Z,5.2
2017-11-11T03:05:39.360Z,5.3
2017-11-11T03:05:59.520Z,5.4
2017-11-11T03:06:19.698Z,5.4
2017-11-11T03:06:39.882Z,5.4
2017-11-11T03:07:00.056Z,5.4
2017-11-11T03:07:20.291Z,5.4
2017-11-11T03:07:40.526Z,5.4
2017-11-11T03:08:00.717Z,5.4
2017-11-11T03:08:20.889Z,5.3
2017-11-11T03:08:41.069Z,5.3
2017-11-11T03:09:01.238Z,5.4
2017-11-11T03:09:21.406Z,5.4
2017-11-11T03:09:41.571Z,5.4
2017-11-11T03:10:01.823Z,5.4
2017-11-11T03:10:21.995Z,5.4
2017-11-11T03:10:42.166Z,5.4
2017-11-11T03:11:02.357Z,5.4
2017-11-11T03:11:22.522Z,5.4
2017-11-11T03:11:42.692Z,5.4
2017-11-11T03:12:02.867Z,5.5
2017-11-11T03:12:23.045Z,5.4
2017-11-11T03:12:43.222Z,5.4
2017-11-11T03:13:03.399Z,5.4
2017-11-11T03:13:23.581Z,5.4
2017-11-11T03:13:43.812Z,5.4
2017-11-11T03:14:03.994Z,5.4
2017-11-11T03:14:24.157Z,5.4
2017-11-11T03:14:44.423Z,5.4
2017-11-11T03:15:04.602Z,5.4
2017-11-11T03:15:24.784Z,5.3
2017-11-11T03:15:44.964Z,5.4
2017-11-11T03:16:05.137Z,5.3
2017-11-11T03:16:25.311Z,5.4
2017-11-11T03:16:45.499Z,5.4
2017-11-11T03:17:05.686Z,5.4
2017-11-11T03:17:25.851Z,5.4
2017-11-11T03:17:46.011Z,5.4
2017-11-11T03:18:06.194Z,5.4
2017-11-11T03:18:26.422Z,5.4
2017-11-11T03:18:46.598Z,5.4
2017-11-11T03:19:06.768Z,5.4
2017-11-11T03:19:26.924Z,5.3
2017-11-11T03:19:47.118Z,5.4
2017-11-11T03:20:07.378Z,5.4
2017-11-11T03:20:27.557Z,5.4
2017-11-11T03:20:47.751Z,5.3
2017-11-11T03:21:07.933Z,5.3
2017-11-11T03:21:28.112Z,5.3
2017-11-11T03:21:48.294Z,5.3
2017-11-11T03:22:08.497Z,5.4
2017-11-11T03:22:28.672Z,5.3
2017-11-11T03:22:48.851Z,5.4
2017-11-11T03:23:09.087Z,5.3
2017-11-11T03:23:29.327Z,5.3
2017-11-11T03:23:49.570Z,5.3
2017-11-11T03:24:09.752Z,5.3
2017-11-11T03:24:29.936Z,5.3
2017-11-11T03:24:50.134Z,5.3
2017-11-11T03:25:10.301Z,5.3
2017-11-11T03:25:30.468Z,5.3
2017-11-11T03:25:50.653Z,5.3
2017-11-11T03:26:10.815Z,5.3
2017-11-11T03:26:31.028Z,5.3
2017-11-11T03:26:51.214Z,5.3
2017-11-11T03:27:11.394Z,5.3
2017-11-11T03:27:31.564Z,5.3
2017-11-11T03:27:51.733Z,5.3
2017-11-11T03:28:11.906Z,5.4
2017-11-11T03:28:32.135Z,5.4
2017-11-11T03:28:52.315Z,5.4
2017-11-11T03:29:12.483Z,5.4
2017-11-11T03:29:32.780Z,5.4
2017-11-11T03:29:52.951Z,5.4
2017-11-11T03:30:13.122Z,5.3
2017-11-11T03:30:33.310Z,5.4
2017-11-11T03:30:53.466Z,5.3
2017-11-11T03:31:13.803Z,5.4
2017-11-11T03:31:33.965Z,5.2
2017-11-11T03:31:54.139Z,5.3
2017-11-11T03:32:14.318Z,5.2
2017-11-11T03:32:34.495Z,5.3
2017-11-11T03:32:54.682Z,5.3
2017-11-11T03:33:14.850Z,5.4
2017-11-11T03:33:35.088Z,5.3
2017-11-11T03:33:55.275Z,5.4
2017-11-11T03:34:15.458Z,5.4
2017-11-11T03:34:35.688Z,5.3
2017-11-11T03:34:55.858Z,5.3
2017-11-11T03:35:16.043Z,5.3
2017-11-11T03:35:36.226Z,5.3
2017-11-11T03:35:56.390Z,5.3
2017-11-11T03:36:16.551Z,5.3
2017-11-11T03:36:36.722Z,5.3
2017-11-11T03:36:56.914Z,5.3
2017-11-11T03:37:17.089Z,5.3
2017-11-11T03:37:37.261Z,5.3
2017-11-11T03:37:57.436Z,5.3
2017-11-11T03:38:17.612Z,5.3
2017-11-11T03:38:37.798Z,5.3
2017-11-11T03:38:57.983Z,5.4
2017-11-11T03:39:18.203Z,5.3
2017-11-11T03:39:38.382Z,5.3
2017-11-11T03:39:58.562Z,5.3
2017-11-11T03:40:18.794Z,5.2
2017-11-11T03:40:38.978Z,5.3
2017-11-11T03:40:59.136Z,5.3
2017-11-11T03:41:19.301Z,5.2
2017-11-11T03:41:39.486Z,5.3
2017-11-11T03:41:59.663Z,5.3
2017-11-11T03:42:19.843Z,5.3
2017-11-11T03:42:40.028Z,5.2
2017-11-11T03:43:00.214Z,5.2
2017-11-11T03:43:20.397Z,5.3
2017-11-11T03:43:40.566Z,5.2
2017-11-11T03:44:00.739Z,5.2
2017-11-11T03:44:20.919Z,5.2
2017-11-11T03:44:41.164Z,5.2
2017-11-11T03:45:01.329Z,5.2
2017-11-11T03:45:21.517Z,5.2
2017-11-11T03:45:41.696Z,5.3
2017-11-11T03:46:01.882Z,5.2
2017-11-11T03:46:22.041Z,5.2
2017-11-11T03:46:42.290Z,5.2
2017-11-11T03:47:02.466Z,5.2
2017-11-11T03:47:22.680Z,5.2
2017-11-11T03:47:42.852Z,5.2
2017-11-11T03:48:03.049Z,5.1
2017-11-11T03:48:23.213Z,5.2
2017-11-11T03:48:43.391Z,5.2
2017-11-11T03:49:03.570Z,5.2
2017-11-11T03:49:23.748Z,5.2
2017-11-11T03:49:44.069Z,5.2
2017-11-11T03:50:04.252Z,5.1
2017-11-11T03:50:24.417Z,5.2
2017-11-11T03:50:44.596Z,5.2
2017-11-11T03:51:04.785Z,5.2
2017-11-11T03:51:24.961Z,5.1
2017-11-11T03:51:45.141Z,5.2
2017-11-11T03:52:05.318Z,5.2
2017-11-11T03:52:25.483Z,5.1
2017-11-11T03:52:45.666Z,5.1
2017-11-11T03:53:05.900Z,5.2
2017-11-11T03:53:26.077Z,5.2
2017-11-11T03:53:46.253Z,5.2
2017-11-11T03:54:06.416Z,5.1
2017-11-11T03:54:26.606Z,5.1
2017-11-11T03:54:46.773Z,5.2
2017-11-11T03:55:06.962Z,5.2
2017-11-11T03:55:27.150Z,5.2
2017-11-11T03:55:47.345Z,5.2
2017-11-11T03:56:07.521Z,5.2
2017-11-11T03:56:27.702Z,5.2
2017-11-11T03:56:47.858Z,5.3
2017-11-11T03:57:08.051Z,5.3
2017-11-11T03:57:28.215Z,5.2
2017-11-11T03:57:48.386Z,5.2
2017-11-11T03:58:08.577Z,5.3
2017-11-11T03:58:28.781Z,5.2
2017-11-11T03:58:48.961Z,5.2
2017-11-11T03:59:09.147Z,5.2
2017-11-11T03:59:29.324Z,5.2
2017-11-11T03:59:49.564Z,5.3
2017-11-11T04:00:09.744Z,5.3
2017-11-11T04:00:29.985Z,5.3
2017-11-11T04:00:50.216Z,5.2
2017-11-11T04:01:10.402Z,5.2
2017-11-11T04:01:30.576Z,5.2
2017-11-11T04:01:50.749Z,5.2
2017-11-11T04:02:10.945Z,5.3
2017-11-11T04:02:31.119Z,5.2
2017-11-11T04:02:51.299Z,5.3
2017-11-11T04:03:11.472Z,5.3
2017-11-11T04:03:31.631Z,5.2
2017-11-11T04:03:51.868Z,5.2
2017-11-11T04:04:12.054Z,5.2
2017-11-11T04:04:32.233Z,5.2
2017-11-11T04:04:52.415Z,5.2
2017-11-11T04:05:12.589Z,5.2
2017-11-11T04:05:32.776Z,5.2
2017-11-11T04:05:52.950Z,5.2
2017-11-11T04:06:13.179Z,5.3
2017-11-11T04:06:33.354Z,5.2
2017-11-11T04:06:53.533Z,5.3
2017-11-11T04:07:13.740Z,5.2
2017-11-11T04:07:33.902Z,5.3
2017-11-11T04:07:54.080Z,5.3
2017-11-11T04:08:14.321Z,5.2
2017-11-11T04:08:34.511Z,5.3
2017-11-11T04:08:54.696Z,5.3
2017-11-11T04:09:14.878Z,5.3
2017-11-11T04:09:35.056Z,5.2
2017-11-11T04:09:55.231Z,5.2
2017-11-11T04:10:15.406Z,5.3
2017-11-11T04:10:35.599Z,5.3
2017-11-11T04:10:55.779Z,5.3
2017-11-11T04:11:15.951Z,5.3
2017-11-11T04:11:36.135Z,5.3
2017-11-11T04:11:56.308Z,5.3
2017-11-11T04:12:16.551Z,5.3
2017-11-11T04:12:36.738Z,5.3
2017-11-11T04:12:56.923Z,5.3
2017-11-11T04:13:17.110Z,5.3
2017-11-11T04:13:37.286Z,5.2
2017-11-11T04:13:57.467Z,5.3
2017-11-11T04:14:17.654Z,5.3
2017-11-11T04:14:37.827Z,5.3
2017-11-11T04:14:58.000Z,5.3
2017-11-11T04:15:18.173Z,5.3
2017-11-11T04:15:38.402Z,5.3
2017-11-11T04:15:58.560Z,5.4
2017-11-11T04:16:18.738Z,5.4
2017-11-11T04:16:38.907Z,5.3
2017-11-11T04:16:59.079Z,5.3
2017-11-11T04:17:19.257Z,5.4
2017-11-11T04:17:39.455Z,5.4
2017-11-11T04:17:59.611Z,5.3
2017-11-11T04:18:19.798Z,5.4
2017-11-11T04:18:39.958Z,5.4
2017-11-11T04:19:00.157Z,5.4
2017-11-11T04:19:20.326Z,5.4
2017-11-11T04:19:40.512Z,5.4
2017-11-11T04:20:00.690Z,5.5
2017-11-11T04:20:20.868Z,5.4
2017-11-11T04:20:41.037Z,5.4
2017-11-11T04:21:01.200Z,5.4
2017-11-11T04:21:21.398Z,5.4
2017-11-11T04:21:41.597Z,5.4
2017-11-11T04:22:01.834Z,5.4
2017-11-11T04:22:22.011Z,5.4
2017-11-11T04:22:42.187Z,5.4
2017-11-11T04:23:02.352Z,5.4
2017-11-11T04:23:22.530Z,5.4
2017-11-11T04:23:42.702Z,5.4
2017-11-11T04:24:02.899Z,5.4
2017-11-11T04:24:23.080Z,5.4
2017-11-11T04:24:43.336Z,5.4
2017-11-11T04:25:03.496Z,5.4
2017-11-11T04:25:23.674Z,5.4
2017-11-11T04:25:43.859Z,5.3
2017-11-11T04:26:04.085Z,5.4
2017-11-11T04:26:24.269Z,5.3
2017-11-11T04:26:44.449Z,5.4
2017-11-11T04:27:04.623Z,5.3
2017-11-11T04:27:24.803Z,5.3
2017-11-11T04:27:44.978Z,5.3
2017-11-11T04:28:05.147Z,5.4
2017-11-11T04:28:25.335Z,5.3
2017-11-11T04:28:45.520Z,5.3
2017-11-11T04:29:05.712Z,5.3
2017-11-11T04:29:25.871Z,5.3
2017-11-11T04:29:46.033Z,5.3
2017-11-11T04:30:06.209Z,5.3
2017-11-11T04:30:26.383Z,5.3
2017-11-11T04:30:46.561Z,5.3
2017-11-11T04:31:06.751Z,5.3
2017-11-11T04:31:26.944Z,5.2
2017-11-11T04:31:47.133Z,5.3
2017-11-11T04:32:07.310Z,5.3
2017-11-11T04:32:27.490Z,5.3
2017-11-11T04:32:47.671Z,5.2
2017-11-11T04:33:07.835Z,5.3
2017-11-11T04:33:28.012Z,5.2
2017-11-11T04:33:48.185Z,5.3
2017-11-11T04:34:08.364Z,5.3
2017-11-11T04:34:28.566Z,5.3
2017-11-11T04:34:48.741Z,5.3
2017-11-11T04:35:08.928Z,5.4
2017-11-11T04:35:29.097Z,5.3
2017-11-11T04:35:49.299Z,5.3
2017-11-11T04:36:09.492Z,5.3
2017-11-11T04:36:29.667Z,5.4
2017-11-11T04:36:49.856Z,5.3
2017-11-11T04:37:10.044Z,5.3
2017-11-11T04:37:30.219Z,5.3
2017-11-11T04:37:50.394Z,5.4
2017-11-11T04:38:10.588Z,5.4
2017-11-11T04:38:30.764Z,5.3
2017-11-11T04:38:50.941Z,5.4
2017-11-11T04:39:11.190Z,5.4
2017-11-11T04:39:31.416Z,5.3
2017-11-11T04:39:51.600Z,5.4
2017-11-11T04:40:11.768Z,5.4
2017-11-11T04:40:32.010Z,5.4